Time;durP1;ratioP1;P1;durP2;ratioP2;P2;SDS_P1;SDS_P2;PMS_P1;PMS_P2;Temp;Humidity;BMP_temperature;BMP_pressure;BME280_temperature;BME280_humidity;BME280_pressure;Samples;Min_cycle;Max_cycle;Signal;HPM_P1;HPM_P2
2022/12/22 03:28:11;;;;;;;110.50;38.40;;;7.10;99.90;;;;;;5091078;28;20139;-81
2022/12/22 03:31:03;;;;;;;102.75;33.88;;;7.10;99.90;;;;;;5058611;28;20051;-81
2022/12/22 03:33:49;;;;;;;100.50;35.30;;;7.20;99.90;;;;;;5072089;28;20099;-85
2022/12/22 03:36:36;;;;;;;93.97;35.65;;;7.20;99.90;;;;;;5082366;28;20083;-81
2022/12/22 03:39:22;;;;;;;106.38;34.92;;;7.20;99.90;;;;;;5089529;28;20065;-78
2022/12/22 03:48:21;;;;;;;105.30;35.25;;;7.10;99.90;;;;;;5095776;28;20394;-82
2022/12/22 03:51:07;;;;;;;101.72;34.40;;;7.10;99.90;;;;;;5089808;28;20100;-80
2022/12/22 03:53:53;;;;;;;103.38;35.33;;;7.10;99.90;;;;;;5090040;28;20043;-81
2022/12/22 03:56:40;;;;;;;96.15;35.00;;;7.10;99.90;;;;;;5072260;28;20101;-84
2022/12/22 03:59:26;;;;;;;97.38;34.03;;;7.10;99.90;;;;;;5071730;28;20180;-82
2022/12/22 04:02:13;;;;;;;104.18;36.13;;;7.10;99.90;;;;;;5097744;28;20407;-79
2022/12/22 04:04:59;;;;;;;88.88;33.38;;;7.10;99.90;;;;;;5091514;28;20048;-80
2022/12/22 04:07:45;;;;;;;104.53;34.47;;;7.10;99.90;;;;;;5072057;28;20060;-83
2022/12/22 04:13:37;;;;;;;93.88;33.28;;;7.20;99.90;;;;;;5089285;28;20492;-79
2022/12/22 04:16:23;;;;;;;86.45;30.88;;;7.20;99.90;;;;;;5089909;28;20486;-85
2022/12/22 04:19:09;;;;;;;102.82;33.22;;;7.20;99.90;;;;;;5078272;28;20044;-82
2022/12/22 04:21:56;;;;;;;87.53;32.80;;;7.10;99.90;;;;;;5071209;28;20056;-80
2022/12/22 04:24:42;;;;;;;96.85;33.88;;;7.10;99.90;;;;;;5072311;28;20078;-83
2022/12/22 04:27:28;;;;;;;87.97;33.75;;;7.00;99.90;;;;;;5077644;28;20054;-82
2022/12/22 04:30:15;;;;;;;94.03;31.65;;;6.90;99.90;;;;;;5073395;28;20055;-83
2022/12/22 04:33:01;;;;;;;88.82;32.63;;;6.90;99.90;;;;;;5094450;28;20069;-79
2022/12/22 04:35:48;;;;;;;100.53;34.35;;;6.90;99.90;;;;;;5076085;28;20043;-83
2022/12/22 04:38:36;;;;;;;94.50;33.38;;;6.90;99.90;;;;;;5093077;28;20102;-80
2022/12/22 04:41:22;;;;;;;90.47;32.13;;;6.90;99.90;;;;;;5093859;28;20131;-83
2022/12/22 04:44:08;;;;;;;92.88;33.72;;;6.90;99.90;;;;;;5094474;28;20126;-84
2022/12/22 04:46:55;;;;;;;95.80;33.80;;;6.90;99.90;;;;;;5083650;28;20361;-81
2022/12/22 04:49:41;;;;;;;96.13;32.97;;;6.90;99.90;;;;;;5061689;28;20113;-82
2022/12/22 04:52:27;;;;;;;87.95;32.75;;;6.90;99.90;;;;;;5075588;28;20048;-85
2022/12/22 04:55:13;;;;;;;101.60;34.05;;;7.00;99.90;;;;;;5075063;28;20044;-86
2022/12/22 04:58:00;;;;;;;98.25;33.28;;;7.00;99.90;;;;;;5092962;28;20043;-85
2022/12/22 05:00:46;;;;;;;96.60;31.92;;;7.10;99.90;;;;;;5098529;28;20058;-84
2022/12/22 05:03:32;;;;;;;97.80;32.85;;;7.00;99.90;;;;;;5061091;28;20087;-83
2022/12/22 05:06:18;;;;;;;98.03;33.65;;;7.00;99.90;;;;;;5075539;28;20157;-80
2022/12/22 05:09:05;;;;;;;104.18;34.03;;;7.00;99.90;;;;;;5090997;28;20044;-81
2022/12/22 05:11:51;;;;;;;82.32;30.80;;;7.00;99.90;;;;;;5075163;28;20086;-81
2022/12/22 05:14:37;;;;;;;113.30;35.08;;;7.00;99.90;;;;;;5077226;28;20044;-82
2022/12/22 05:17:23;;;;;;;103.13;34.13;;;7.00;99.90;;;;;;5092773;28;20043;-81
2022/12/22 05:20:09;;;;;;;107.70;36.22;;;7.00;99.90;;;;;;5091569;28;20052;-83
2022/12/22 05:22:56;;;;;;;117.55;34.58;;;7.00;99.90;;;;;;5074667;28;20063;-84
2022/12/22 05:25:42;;;;;;;115.82;37.60;;;7.00;99.90;;;;;;5092784;28;20413;-82
2022/12/22 05:28:30;;;;;;;123.43;39.95;;;6.90;99.90;;;;;;5078193;28;20040;-81
2022/12/22 05:31:19;;;;;;;144.90;42.92;;;6.80;99.90;;;;;;5105166;28;20052;-83
2022/12/22 05:34:06;;;;;;;138.43;38.67;;;6.70;99.90;;;;;;5093790;28;20094;-82
2022/12/22 05:36:52;;;;;;;138.27;40.17;;;6.60;99.90;;;;;;5091300;28;20572;-82
2022/12/22 05:39:38;;;;;;;125.95;37.75;;;6.50;99.90;;;;;;5092572;28;20044;-81
2022/12/22 05:42:36;;;;;;;120.18;37.17;;;6.50;99.90;;;;;;5092037;28;20047;-82
2022/12/22 05:45:23;;;;;;;112.05;35.30;;;6.40;99.90;;;;;;5067208;28;20407;-82
2022/12/22 05:48:09;;;;;;;126.80;38.55;;;6.30;99.90;;;;;;5090719;28;20044;-81
2022/12/22 05:50:56;;;;;;;425.85;59.20;;;6.20;99.90;;;;;;5074214;28;20052;-83
2022/12/22 05:53:42;;;;;;;503.08;58.90;;;6.20;99.90;;;;;;5081642;28;20373;-80
2022/12/22 05:56:28;;;;;;;519.83;62.58;;;6.10;99.90;;;;;;5094519;28;20113;-82
2022/12/22 05:59:14;;;;;;;512.97;63.55;;;6.00;99.90;;;;;;5095881;28;20048;-80
2022/12/22 06:02:01;;;;;;;468.48;50.78;;;5.90;99.90;;;;;;5073779;28;20597;-82
2022/12/22 06:04:47;;;;;;;416.02;54.15;;;5.80;99.90;;;;;;5091989;28;20040;-81
2022/12/22 06:07:33;;;;;;;352.88;46.17;;;5.80;99.90;;;;;;5072356;28;20064;-83
2022/12/22 06:10:20;;;;;;;205.70;37.42;;;5.70;99.90;;;;;;5073653;28;20503;-82
2022/12/22 06:13:06;;;;;;;93.35;28.63;;;5.60;99.90;;;;;;5081926;28;20056;-81
2022/12/22 06:15:52;;;;;;;81.25;26.45;;;5.70;99.90;;;;;;5092563;28;20419;-85
2022/12/22 06:18:40;;;;;;;97.55;29.05;;;5.70;99.90;;;;;;5099381;28;20150;-82
2022/12/22 06:21:26;;;;;;;108.85;29.42;;;5.70;99.90;;;;;;5075724;28;20404;-79
2022/12/22 06:24:12;;;;;;;101.88;27.98;;;5.70;99.90;;;;;;5074624;28;20499;-85
2022/12/22 06:26:59;;;;;;;115.45;27.98;;;5.70;99.90;;;;;;5094040;28;20055;-83
2022/12/22 06:29:45;;;;;;;95.22;27.52;;;5.80;99.90;;;;;;5085297;28;20158;-83
2022/12/22 06:32:35;;;;;;;91.07;26.08;;;5.70;99.90;;;;;;5081676;28;20052;-82
2022/12/22 06:35:21;;;;;;;118.38;30.83;;;5.80;99.90;;;;;;5081616;28;20064;-82
2022/12/22 06:38:08;;;;;;;121.10;28.67;;;5.70;99.90;;;;;;5080197;28;20498;-82
2022/12/22 06:40:54;;;;;;;311.33;43.25;;;5.80;99.90;;;;;;5096257;28;20048;-79
2022/12/22 06:43:40;;;;;;;190.63;35.00;;;5.80;99.90;;;;;;5094752;28;20411;-84
2022/12/22 06:46:26;;;;;;;267.92;39.60;;;5.80;99.90;;;;;;5094242;28;20182;-81
2022/12/22 06:49:12;;;;;;;371.40;41.45;;;5.90;99.90;;;;;;5073635;28;20055;-82
2022/12/22 06:51:59;;;;;;;374.15;41.53;;;5.90;99.90;;;;;;5091769;28;20439;-81
2022/12/22 06:54:45;;;;;;;371.85;43.50;;;5.90;99.90;;;;;;5088673;28;20044;-81
2022/12/22 06:57:31;;;;;;;320.20;40.40;;;5.90;99.90;;;;;;5058792;28;20484;-83
2022/12/22 07:00:18;;;;;;;431.30;48.95;;;5.90;99.90;;;;;;5095842;28;20454;-82
2022/12/22 07:03:04;;;;;;;284.27;38.03;;;5.90;99.90;;;;;;5097549;28;20067;-83
2022/12/22 07:05:50;;;;;;;395.50;45.47;;;5.90;99.90;;;;;;5092571;28;20404;-82
2022/12/22 07:08:36;;;;;;;402.40;49.28;;;5.90;99.90;;;;;;5090922;28;20039;-82
2022/12/22 07:11:23;;;;;;;306.52;41.08;;;5.90;99.90;;;;;;5073352;28;20079;-86
2022/12/22 07:14:10;;;;;;;416.95;49.53;;;5.90;99.90;;;;;;5094859;28;20054;-81
2022/12/22 07:16:56;;;;;;;436.73;49.88;;;5.90;99.90;;;;;;5073061;28;20531;-82
2022/12/22 07:19:42;;;;;;;425.02;48.03;;;5.80;99.90;;;;;;5071962;28;20070;-82
2022/12/22 07:22:28;;;;;;;358.75;46.10;;;5.80;99.90;;;;;;5090346;28;20052;-82
2022/12/22 07:25:15;;;;;;;396.20;45.85;;;5.80;99.90;;;;;;5091140;28;20051;-84
2022/12/22 07:28:01;;;;;;;450.40;47.97;;;5.70;99.90;;;;;;5098937;28;20055;-81
2022/12/22 07:30:49;;;;;;;381.60;43.20;;;5.70;99.90;;;;;;5091213;28;20135;-83
2022/12/22 07:33:35;;;;;;;403.38;43.90;;;5.60;99.90;;;;;;5072685;28;20043;-79
2022/12/22 07:36:22;;;;;;;442.63;47.25;;;5.60;99.90;;;;;;5089036;28;20040;-79
2022/12/22 07:39:08;;;;;;;380.13;39.53;;;5.60;99.90;;;;;;5089788;28;20381;-80
2022/12/22 07:44:59;;;;;;;420.80;41.15;;;5.50;99.90;;;;;;5072487;28;20044;-82
2022/12/22 07:47:46;;;;;;;403.65;40.83;;;5.40;99.90;;;;;;5075732;28;20442;-80
2022/12/22 07:50:32;;;;;;;348.05;35.40;;;5.40;99.90;;;;;;5072594;28;20052;-80
2022/12/22 07:53:18;;;;;;;368.05;36.42;;;5.40;99.90;;;;;;5076491;28;20052;-85
2022/12/22 07:56:05;;;;;;;342.60;32.80;;;5.30;99.90;;;;;;5092554;28;20044;-80
2022/12/22 07:58:51;;;;;;;331.45;33.28;;;5.30;99.90;;;;;;5082126;28;20053;-81
2022/12/22 08:01:39;;;;;;;277.20;30.40;;;5.30;99.90;;;;;;5090707;28;20044;-79
2022/12/22 08:04:26;;;;;;;243.40;29.17;;;5.30;99.90;;;;;;5091009;28;20135;-80
2022/12/22 08:07:12;;;;;;;259.70;29.83;;;5.20;99.90;;;;;;5074739;28;20414;-80
2022/12/22 08:09:58;;;;;;;223.02;28.50;;;5.30;99.90;;;;;;5076037;28;20056;-79
2022/12/22 08:12:45;;;;;;;304.73;34.80;;;5.30;99.90;;;;;;5094640;28;20044;-85
2022/12/22 08:15:32;;;;;;;254.00;33.55;;;5.30;99.90;;;;;;5076962;28;20059;-80
2022/12/22 08:18:18;;;;;;;305.70;36.20;;;5.30;99.90;;;;;;5094442;28;20044;-79
2022/12/22 08:21:06;;;;;;;286.23;34.00;;;5.30;99.90;;;;;;5091951;28;20070;-80
2022/12/22 08:23:52;;;;;;;286.65;35.03;;;5.30;99.90;;;;;;5075963;28;20048;-80
2022/12/22 08:26:44;;;;;;;216.30;27.85;;;5.30;99.90;;;;;;5096187;28;20411;-82
2022/12/22 08:29:58;;;;;;;277.95;33.05;;;5.40;99.90;;;;;;5096165;28;20552;-80
2022/12/22 08:32:48;;;;;;;147.60;22.60;;;5.40;99.90;;;;;;5074966;28;20447;-83
2022/12/22 08:35:35;;;;;;;137.23;24.05;;;5.40;99.90;;;;;;5075667;28;20048;-81
2022/12/22 08:38:21;;;;;;;97.60;20.20;;;5.40;99.90;;;;;;5093565;28;20051;-80
2022/12/22 08:41:10;;;;;;;110.30;22.88;;;5.40;99.90;;;;;;5079406;28;20060;-84
2022/12/22 08:43:56;;;;;;;54.17;16.60;;;5.40;99.90;;;;;;5098017;28;20137;-79
2022/12/22 08:46:42;;;;;;;64.07;18.58;;;5.40;99.90;;;;;;5096863;28;20131;-79
2022/12/22 08:49:28;;;;;;;45.47;16.58;;;5.50;99.90;;;;;;5079935;28;20044;-80
2022/12/22 08:52:15;;;;;;;41.38;14.52;;;5.50;99.90;;;;;;5075504;28;20048;-81
2022/12/22 08:55:01;;;;;;;33.30;13.23;;;5.50;99.90;;;;;;5078209;28;20648;-85
2022/12/22 08:57:51;;;;;;;38.85;12.73;;;5.60;99.90;;;;;;5079694;28;20048;-81
2022/12/22 09:00:37;;;;;;;36.53;14.55;;;5.60;99.90;;;;;;5093633;28;20048;-81
2022/12/22 09:03:23;;;;;;;30.95;12.75;;;5.60;99.90;;;;;;5075208;28;20105;-80
2022/12/22 09:06:09;;;;;;;36.08;12.45;;;5.70;99.90;;;;;;5075601;28;20056;-85
2022/12/22 09:08:58;;;;;;;28.13;11.27;;;5.80;99.90;;;;;;5104363;28;20346;-82
2022/12/22 09:11:44;;;;;;;35.80;10.13;;;5.80;99.90;;;;;;5077841;28;20063;-82
2022/12/22 09:14:31;;;;;;;26.52;10.23;;;5.90;99.90;;;;;;5092494;28;20046;-81
2022/12/22 09:17:17;;;;;;;29.85;11.98;;;6.00;99.90;;;;;;5074139;28;20576;-81
2022/12/22 09:20:05;;;;;;;29.85;12.23;;;6.00;99.90;;;;;;5085374;28;20047;-84
2022/12/22 09:22:51;;;;;;;24.15;11.55;;;6.10;99.90;;;;;;5079795;28;20056;-80
2022/12/22 09:25:37;;;;;;;34.65;13.65;;;6.20;99.90;;;;;;5079570;28;20052;-81
2022/12/22 09:28:23;;;;;;;34.72;13.65;;;6.30;99.90;;;;;;5080557;28;20048;-85
2022/12/22 09:31:10;;;;;;;31.73;11.48;;;6.40;99.90;;;;;;5096121;28;20044;-85
2022/12/22 09:33:57;;;;;;;33.25;13.60;;;6.60;99.90;;;;;;5092806;28;20189;-86
2022/12/22 09:36:43;;;;;;;34.08;14.25;;;6.80;99.90;;;;;;5077176;28;20193;-84
2022/12/22 09:39:30;;;;;;;20.70;10.48;;;6.90;99.90;;;;;;5093176;28;20052;-86
2022/12/22 09:42:22;;;;;;;25.38;11.25;;;6.80;99.90;;;;;;5075286;28;20109;-84
2022/12/22 09:45:20;;;;;;;29.40;12.00;;;6.90;99.90;;;;;;5093376;28;20043;-84
2022/12/22 09:48:12;;;;;;;25.35;11.23;;;6.90;99.90;;;;;;5080809;28;20055;-81
2022/12/22 09:50:58;;;;;;;22.05;9.70;;;6.90;99.90;;;;;;5093054;28;20521;-84
2022/12/22 09:53:50;;;;;;;22.20;10.82;;;7.20;99.90;;;;;;5093517;28;20044;-81
2022/12/22 09:56:36;;;;;;;22.92;9.93;;;7.50;99.90;;;;;;5081401;28;20052;-83
2022/12/22 09:59:30;;;;;;;17.08;7.93;;;7.70;99.90;;;;;;5073978;28;20040;-84
2022/12/22 10:02:22;;;;;;;15.35;7.18;;;7.60;99.90;;;;;;5079039;28;20067;-83
2022/12/22 10:05:27;;;;;;;19.15;7.93;;;7.40;99.90;;;;;;5074832;28;20044;-83
2022/12/22 10:08:24;;;;;;;16.97;7.83;;;7.30;99.90;;;;;;5092211;28;20670;-82
2022/12/22 10:11:16;;;;;;;16.13;7.10;;;7.20;99.90;;;;;;5074014;28;20875;-84
2022/12/22 10:14:02;;;;;;;19.75;6.93;;;7.30;99.90;;;;;;5073744;28;20052;-85
2022/12/22 10:16:48;;;;;;;13.75;6.15;;;7.30;99.90;;;;;;5086746;28;20051;-85
2022/12/22 10:19:35;;;;;;;14.07;5.45;;;7.30;99.90;;;;;;5093737;28;20048;-81
2022/12/22 10:22:34;;;;;;;19.73;6.30;;;7.30;99.90;;;;;;5080012;28;20115;-82
2022/12/22 10:25:55;;;;;;;16.40;5.40;;;7.20;99.90;;;;;;5072255;28;20055;-82
2022/12/22 10:28:45;;;;;;;19.98;6.07;;;7.20;99.90;;;;;;5072893;28;20055;-82
2022/12/22 10:31:33;;;;;;;15.73;5.88;;;7.20;99.90;;;;;;5095365;28;20048;-85
2022/12/22 10:34:20;;;;;;;16.67;5.10;;;7.40;99.90;;;;;;5073138;28;20059;-81
2022/12/22 10:37:06;;;;;;;13.38;5.30;;;7.60;99.90;;;;;;5072721;28;20148;-81
2022/12/22 10:39:52;;;;;;;11.07;3.92;;;7.50;99.90;;;;;;5090449;28;20052;-83
2022/12/22 10:42:49;;;;;;;18.05;4.50;;;7.50;99.90;;;;;;5090677;28;20069;-80
2022/12/22 10:45:36;;;;;;;12.85;4.13;;;7.40;99.90;;;;;;5071893;28;20133;-83
2022/12/22 10:48:32;;;;;;;17.77;4.05;;;7.50;99.90;;;;;;5091432;28;20174;-83
2022/12/22 10:51:24;;;;;;;18.90;3.60;;;7.60;99.90;;;;;;5071669;28;20399;-84
2022/12/22 10:54:24;;;;;;;14.15;3.45;;;7.70;99.90;;;;;;5089653;28;20060;-84
2022/12/22 10:57:13;;;;;;;19.20;4.78;;;8.10;99.90;;;;;;5089840;28;20462;-81
2022/12/22 11:00:19;;;;;;;21.20;3.20;;;8.60;99.90;;;;;;5091466;28;20044;-81
2022/12/22 11:03:10;;;;;;;12.98;3.15;;;9.00;99.90;;;;;;5097176;28;20047;-81
2022/12/22 11:05:59;;;;;;;13.88;2.97;;;9.30;99.90;;;;;;5078769;28;20044;-83
2022/12/22 11:08:46;;;;;;;15.43;3.30;;;9.30;99.90;;;;;;5090325;28;20055;-84
2022/12/22 11:11:50;;;;;;;29.55;4.30;;;9.30;99.90;;;;;;5090439;28;20048;-84
2022/12/22 11:14:43;;;;;;;13.50;3.30;;;9.60;99.90;;;;;;5091635;28;20052;-84
2022/12/22 11:17:58;;;;;;;15.07;2.53;;;10.00;99.90;;;;;;5095515;28;20051;-81
2022/12/22 11:20:51;;;;;;;14.82;2.65;;;10.20;99.90;;;;;;5075587;28;20488;-81
2022/12/22 11:23:52;;;;;;;8.95;2.10;;;10.60;99.90;;;;;;5092173;28;20083;-80
2022/12/22 11:27:17;;;;;;;13.15;2.38;;;10.50;99.90;;;;;;5096922;28;20051;-82
2022/12/22 11:30:09;;;;;;;19.40;4.43;;;10.60;99.90;;;;;;5079067;28;20040;-81
2022/12/22 11:33:04;;;;;;;15.00;3.63;;;11.00;99.90;;;;;;5072171;28;20043;-82
2022/12/22 11:36:03;;;;;;;;;;;11.30;99.90;;;;;;5091398;28;20059;-82
2022/12/22 11:39:14;;;;;;;15.90;2.88;;;11.90;99.90;;;;;;5072977;28;19920;-85
2022/12/22 11:42:32;;;;;;;15.02;2.28;;;11.90;99.90;;;;;;5071773;28;20189;-85
2022/12/22 11:45:46;;;;;;;15.70;2.58;;;12.10;99.90;;;;;;5042396;28;20130;-84
2022/12/22 11:48:57;;;;;;;20.25;4.50;;;12.30;99.90;;;;;;5079741;28;20048;-81
2022/12/22 11:52:00;;;;;;;18.55;2.63;;;12.60;99.90;;;;;;5091296;28;20051;-84
2022/12/22 11:55:15;;;;;;;11.57;2.67;;;12.30;99.90;;;;;;5074176;28;20094;-85
2022/12/22 11:58:41;;;;;;;14.77;3.00;;;12.00;99.90;;;;;;5090740;28;20136;-82
2022/12/22 12:01:27;;;;;;;10.73;2.38;;;11.90;99.90;;;;;;5058158;28;20528;-80
2022/12/22 12:04:34;;;;;;;11.07;2.25;;;11.70;99.90;;;;;;5091362;28;20550;-81
2022/12/22 12:07:43;;;;;;;11.02;2.65;;;11.40;99.90;;;;;;5058820;28;20052;-81
2022/12/22 12:10:56;;;;;;;18.42;2.97;;;11.40;99.90;;;;;;5059609;28;20071;-82
2022/12/22 12:14:06;;;;;;;13.65;2.45;;;11.60;99.90;;;;;;5071207;28;20087;-83
2022/12/22 12:17:13;;;;;;;12.65;3.00;;;11.90;99.90;;;;;;5071942;28;20055;-81
2022/12/22 12:20:18;;;;;;;16.17;2.65;;;12.40;99.90;;;;;;5089657;28;20584;-81
2022/12/22 12:23:06;;;;;;;16.00;2.40;;;13.20;99.90;;;;;;5058371;28;20044;-85
2022/12/22 12:26:04;;;;;;;13.30;2.88;;;13.90;99.90;;;;;;5082527;28;20052;-85
2022/12/22 12:29:17;;;;;;;18.60;2.88;;;14.30;99.90;;;;;;5067985;28;20094;-82
2022/12/22 12:32:19;;;;;;;16.98;3.40;;;14.50;99.90;;;;;;5072310;28;20055;-84
2022/12/22 12:35:21;;;;;;;12.27;3.00;;;14.20;99.90;;;;;;5071851;28;20456;-81
2022/12/22 12:38:23;;;;;;;16.60;2.40;;;13.40;99.90;;;;;;5089964;28;20462;-85
2022/12/22 12:41:19;;;;;;;19.85;2.90;;;12.90;99.90;;;;;;5093079;28;20044;-84
2022/12/22 12:44:12;;;;;;;9.68;2.50;;;12.50;99.90;;;;;;5072135;28;20048;-81
2022/12/22 12:47:06;;;;;;;10.40;2.25;;;12.60;99.90;;;;;;5089250;28;20059;-81
2022/12/22 12:50:29;;;;;;;11.02;2.30;;;12.20;99.90;;;;;;5089597;28;20123;-82
2022/12/22 12:53:19;;;;;;;16.83;3.22;;;11.70;99.90;;;;;;5077737;28;20396;-81
2022/12/22 12:56:08;;;;;;;14.63;2.22;;;11.10;99.90;;;;;;5089218;28;20591;-81
2022/12/22 12:58:56;;;;;;;13.95;3.08;;;10.60;99.90;;;;;;5084212;28;20041;-83
2022/12/22 13:01:42;;;;;;;10.68;2.97;;;10.10;99.90;;;;;;5068584;28;20055;-81
2022/12/22 13:05:06;;;;;;;17.92;2.83;;;9.70;99.90;;;;;;5104659;28;20096;-80
2022/12/22 13:08:08;;;;;;;12.30;2.80;;;9.40;99.90;;;;;;5094165;28;20044;-81
2022/12/22 13:10:54;;;;;;;11.07;2.63;;;9.20;99.90;;;;;;5092326;28;20055;-81
2022/12/22 13:13:40;;;;;;;13.38;3.55;;;9.00;99.90;;;;;;5094312;28;20060;-83
2022/12/22 13:16:29;;;;;;;17.20;2.95;;;8.90;99.90;;;;;;5081029;28;20054;-81
2022/12/22 13:19:23;;;;;;;16.38;3.05;;;8.80;99.90;;;;;;5075641;28;20087;-83
2022/12/22 13:22:09;;;;;;;16.42;3.03;;;8.60;99.90;;;;;;5092908;28;20051;-84
2022/12/22 13:24:56;;;;;;;14.15;2.97;;;8.50;99.90;;;;;;5075573;28;20074;-81
2022/12/22 13:27:43;;;;;;;15.77;3.35;;;8.50;99.90;;;;;;5092979;28;20047;-85
2022/12/22 13:30:30;;;;;;;14.73;3.33;;;8.40;99.90;;;;;;5078791;28;20052;-84
2022/12/22 13:33:19;;;;;;;18.38;3.67;;;8.40;99.90;;;;;;5061134;28;20048;-82
2022/12/22 13:36:15;;;;;;;16.95;2.50;;;8.30;99.90;;;;;;5085128;28;20048;-83
2022/12/22 13:39:04;;;;;;;12.93;2.55;;;8.30;99.90;;;;;;5061177;28;20484;-81
2022/12/22 13:41:51;;;;;;;18.52;2.88;;;8.20;99.90;;;;;;5059475;28;20052;-86
2022/12/22 13:44:38;;;;;;;14.90;2.75;;;8.20;99.90;;;;;;5077685;28;20048;-83
2022/12/22 13:47:25;;;;;;;17.02;3.30;;;8.20;99.90;;;;;;5074306;28;20492;-84
2022/12/22 13:50:33;;;;;;;18.30;2.97;;;8.20;99.90;;;;;;5092809;28;20040;-81
2022/12/22 13:53:31;;;;;;;17.08;3.17;;;8.10;99.90;;;;;;5095179;28;20406;-84
2022/12/22 13:56:39;;;;;;;21.00;3.42;;;8.10;99.90;;;;;;5085377;28;20078;-81
2022/12/22 13:59:43;;;;;;;21.75;3.40;;;8.10;99.90;;;;;;5105472;28;20051;-81
2022/12/22 14:02:31;;;;;;;17.80;3.92;;;8.10;99.90;;;;;;5077086;28;20066;-81
2022/12/22 14:05:18;;;;;;;14.68;2.97;;;8.20;99.90;;;;;;5090139;28;20048;-81
2022/12/22 14:08:06;;;;;;;16.23;4.05;;;8.20;99.90;;;;;;5076926;28;20087;-81
2022/12/22 14:10:54;;;;;;;21.63;4.03;;;8.30;99.90;;;;;;5075419;28;20055;-85
2022/12/22 14:13:41;;;;;;;16.52;3.35;;;8.30;99.90;;;;;;5065766;28;20075;-82
2022/12/22 14:16:28;;;;;;;11.07;3.25;;;8.30;99.90;;;;;;5074279;28;20488;-80
2022/12/22 14:19:16;;;;;;;16.20;3.15;;;8.30;99.90;;;;;;5073639;28;20573;-83
2022/12/22 14:22:08;;;;;;;14.07;3.25;;;8.40;99.90;;;;;;5059491;28;20055;-80
2022/12/22 14:25:00;;;;;;;18.23;3.35;;;8.40;99.90;;;;;;5058692;28;20048;-83
2022/12/22 14:27:54;;;;;;;19.85;2.97;;;8.50;99.90;;;;;;5077968;28;20063;-85
2022/12/22 14:30:44;;;;;;;21.15;2.80;;;8.40;99.90;;;;;;5090852;28;20135;-82
2022/12/22 14:33:33;;;;;;;15.90;2.60;;;8.40;99.90;;;;;;5092557;28;20048;-80
2022/12/22 14:36:25;;;;;;;15.35;2.50;;;8.40;99.90;;;;;;5091715;28;20319;-83
2022/12/22 14:39:22;;;;;;;16.35;3.13;;;8.40;99.90;;;;;;5091497;28;20048;-84
2022/12/22 14:42:13;;;;;;;16.98;3.70;;;8.30;99.90;;;;;;5083337;28;20052;-81
2022/12/22 14:44:59;;;;;;;21.25;3.30;;;8.30;99.90;;;;;;5083475;28;20059;-79
2022/12/22 14:47:46;;;;;;;14.45;2.75;;;8.20;99.90;;;;;;5091350;28;20051;-83
2022/12/22 14:50:35;;;;;;;22.58;3.00;;;8.20;99.90;;;;;;5073112;28;20498;-81
2022/12/22 14:53:31;;;;;;;18.65;2.80;;;8.10;99.90;;;;;;5089973;28;20084;-82
2022/12/22 14:56:18;;;;;;;18.88;3.15;;;8.10;99.90;;;;;;5098426;28;20066;-83
2022/12/22 14:59:22;;;;;;;20.05;2.85;;;8.10;99.90;;;;;;5091023;28;20052;-83
2022/12/22 15:02:35;;;;;;;17.33;2.80;;;8.10;99.90;;;;;;5073644;28;20051;-81
2022/12/22 15:05:32;;;;;;;12.77;3.50;;;8.00;99.90;;;;;;5091423;28;20435;-84
2022/12/22 15:08:37;;;;;;;15.13;2.72;;;8.00;99.90;;;;;;5076169;28;20048;-85
2022/12/22 15:11:24;;;;;;;11.55;2.33;;;8.00;99.90;;;;;;5093057;28;20120;-86
2022/12/22 15:14:16;;;;;;;11.93;2.53;;;7.90;99.90;;;;;;5072120;28;20503;-80
2022/12/22 15:17:04;;;;;;;15.88;2.67;;;7.90;99.90;;;;;;5071556;28;20131;-86
2022/12/22 15:19:53;;;;;;;13.82;2.47;;;7.90;99.90;;;;;;5059151;28;20400;-86
2022/12/22 15:22:39;;;;;;;12.30;2.47;;;7.90;99.90;;;;;;5072958;28;20557;-86
2022/12/22 15:25:25;;;;;;;11.82;2.58;;;7.90;99.90;;;;;;5094115;28;20051;-81
2022/12/22 15:28:12;;;;;;;9.25;2.33;;;7.90;99.90;;;;;;5072713;28;20081;-84
2022/12/22 15:30:59;;;;;;;9.75;2.10;;;7.80;99.90;;;;;;5091152;28;20048;-80
2022/12/22 15:33:45;;;;;;;8.95;2.33;;;7.80;99.90;;;;;;5098136;28;20381;-80
2022/12/22 15:36:31;;;;;;;8.93;2.10;;;7.80;99.90;;;;;;5098380;28;20500;-84
2022/12/22 15:39:19;;;;;;;12.75;2.83;;;7.80;99.90;;;;;;5102154;28;20048;-82
2022/12/22 15:42:05;;;;;;;15.25;2.50;;;7.80;99.90;;;;;;5072279;28;20395;-84
2022/12/22 15:44:51;;;;;;;12.43;2.03;;;7.70;99.90;;;;;;5090462;28;20040;-81
2022/12/22 15:47:42;;;;;;;14.00;2.40;;;7.70;99.90;;;;;;5073077;28;20420;-80
2022/12/22 15:50:34;;;;;;;12.52;1.90;;;7.70;99.90;;;;;;5090541;28;20048;-82
2022/12/22 15:53:20;;;;;;;17.88;3.70;;;7.60;99.90;;;;;;5082733;28;20102;-81
2022/12/22 15:56:14;;;;;;;14.90;2.30;;;7.60;99.90;;;;;;5059483;28;20051;-80
2022/12/22 15:59:00;;;;;;;11.93;2.50;;;7.60;99.90;;;;;;5084216;28;20044;-81
2022/12/22 16:01:47;;;;;;;9.90;2.55;;;7.50;99.90;;;;;;5101740;28;20057;-84
2022/12/22 16:04:33;;;;;;;10.93;2.30;;;7.50;99.90;;;;;;5071552;28;20511;-85
2022/12/22 16:07:19;;;;;;;10.68;2.65;;;7.50;99.90;;;;;;5106367;28;20047;-84
2022/12/22 16:10:17;;;;;;;10.50;3.50;;;7.50;99.90;;;;;;5081098;28;20055;-79
2022/12/22 16:13:03;;;;;;;12.60;4.25;;;7.50;99.90;;;;;;5090009;28;20659;-81
2022/12/22 16:15:50;;;;;;;13.85;4.20;;;7.50;99.90;;;;;;5071346;28;20051;-80
2022/12/22 16:18:36;;;;;;;20.92;6.68;;;7.50;99.90;;;;;;5072971;28;20563;-83
2022/12/22 16:21:30;;;;;;;22.38;7.70;;;7.50;99.90;;;;;;5098161;28;20055;-84
2022/12/22 16:24:37;;;;;;;19.65;7.18;;;7.50;99.90;;;;;;5102796;28;20465;-82
2022/12/22 16:27:23;;;;;;;16.55;6.78;;;7.40;99.90;;;;;;5095440;28;20590;-84
2022/12/22 16:30:23;;;;;;;28.15;9.68;;;7.40;99.90;;;;;;5063791;28;20139;-80
2022/12/22 16:33:11;;;;;;;23.02;11.75;;;7.40;99.90;;;;;;5094888;28;20089;-85
2022/12/22 16:35:57;;;;;;;30.48;15.25;;;7.40;99.90;;;;;;5095613;28;20040;-83
2022/12/22 16:38:44;;;;;;;30.25;16.08;;;7.40;99.90;;;;;;5100348;28;20040;-83
2022/12/22 16:41:30;;;;;;;32.03;17.55;;;7.40;99.90;;;;;;5095650;28;20059;-80
2022/12/22 16:44:21;;;;;;;31.63;16.90;;;7.40;99.90;;;;;;5076132;28;20048;-80
2022/12/22 16:47:30;;;;;;;28.45;16.92;;;7.30;99.90;;;;;;5076566;28;20138;-82
2022/12/22 16:50:19;;;;;;;34.58;17.58;;;7.30;99.90;;;;;;5082028;28;20082;-82
2022/12/22 16:53:05;;;;;;;29.27;16.35;;;7.30;99.90;;;;;;5075113;28;20059;-81
2022/12/22 16:55:52;;;;;;;25.55;14.93;;;7.20;99.90;;;;;;5075862;28;20056;-81
2022/12/22 16:58:38;;;;;;;30.80;15.63;;;7.20;99.90;;;;;;5075702;28;20047;-81
2022/12/22 17:01:37;;;;;;;27.50;14.77;;;7.20;99.90;;;;;;5062573;28;20095;-85
2022/12/22 17:04:27;;;;;;;24.75;14.35;;;7.20;99.90;;;;;;5081067;28;20403;-80
2022/12/22 17:07:13;;;;;;;33.08;17.40;;;7.20;99.90;;;;;;5093835;28;20512;-81
2022/12/22 17:10:01;;;;;;;30.98;16.73;;;7.10;99.90;;;;;;5075575;28;20135;-83
2022/12/22 17:12:48;;;;;;;28.30;16.45;;;7.10;99.90;;;;;;5094740;28;20424;-81
2022/12/22 17:15:34;;;;;;;30.88;16.75;;;7.10;99.90;;;;;;5103073;28;20058;-81
2022/12/22 17:18:23;;;;;;;28.25;16.27;;;7.00;99.90;;;;;;5086225;28;20416;-85
2022/12/22 17:21:11;;;;;;;34.00;18.40;;;7.00;99.90;;;;;;5065514;28;20055;-82
2022/12/22 17:24:03;;;;;;;36.28;19.00;;;7.00;99.90;;;;;;5077359;28;20130;-82
2022/12/22 17:26:49;;;;;;;34.95;18.98;;;7.00;99.90;;;;;;5092972;28;20051;-85
2022/12/22 17:29:37;;;;;;;31.55;17.73;;;7.00;99.90;;;;;;5074792;28;20087;-81
2022/12/22 17:32:23;;;;;;;37.33;19.10;;;7.00;99.90;;;;;;5094329;28;20107;-84
2022/12/22 17:35:17;;;;;;;44.75;20.73;;;6.90;99.90;;;;;;5092819;28;20121;-82
2022/12/22 17:38:03;;;;;;;37.92;20.17;;;6.90;99.90;;;;;;5078397;28;20044;-83
2022/12/22 17:40:49;;;;;;;32.92;20.02;;;6.90;99.90;;;;;;5091750;28;20044;-81
2022/12/22 17:43:36;;;;;;;31.30;18.85;;;6.90;99.90;;;;;;5092387;28;20048;-82
2022/12/22 17:46:22;;;;;;;36.30;19.33;;;6.90;99.90;;;;;;5082064;28;20127;-85
2022/12/22 17:49:08;;;;;;;40.05;20.50;;;6.80;99.90;;;;;;5094236;28;20044;-80
2022/12/22 17:51:55;;;;;;;40.85;21.58;;;6.80;99.90;;;;;;5095516;28;20476;-84
2022/12/22 17:54:41;;;;;;;38.90;20.77;;;6.80;99.90;;;;;;5074572;28;20083;-85
2022/12/22 17:57:31;;;;;;;43.55;21.83;;;6.80;99.90;;;;;;5092597;28;20048;-84
2022/12/22 18:00:24;;;;;;;40.47;22.40;;;6.70;99.90;;;;;;5080095;28;20073;-81
2022/12/22 18:03:14;;;;;;;38.83;21.00;;;6.70;99.90;;;;;;5092658;28;20048;-81
2022/12/22 18:06:00;;;;;;;45.92;22.92;;;6.70;99.90;;;;;;5091952;28;20044;-82
2022/12/22 18:08:47;;;;;;;43.05;22.45;;;6.70;99.90;;;;;;5092134;28;20047;-80
2022/12/22 18:11:33;;;;;;;50.72;24.20;;;6.70;99.90;;;;;;5099203;28;20058;-82
2022/12/22 18:14:21;;;;;;;48.45;23.95;;;6.70;99.90;;;;;;5092413;28;20048;-82
2022/12/22 18:17:21;;;;;;;47.28;25.52;;;6.70;99.90;;;;;;5081679;28;20051;-83